createdAt,value
2022-10-08T00:02:33.885Z,94.26
2022-10-08T00:05:42.197Z,94.67
2022-10-08T00:08:49.489Z,94.77
2022-10-08T00:11:57.347Z,94.87
2022-10-08T00:15:05.309Z,95.28
2022-10-08T00:18:12.651Z,95.23
2022-10-08T00:21:20.460Z,95.02
2022-10-08T00:24:27.902Z,95.33
2022-10-08T00:27:36.081Z,95.43
2022-10-08T00:30:44.371Z,95.02
2022-10-08T00:33:51.887Z,95.23
2022-10-08T00:37:00.194Z,95.23
2022-10-08T00:40:08.775Z,95.33
2022-10-08T00:43:21.706Z,95.64
2022-10-08T00:46:21.143Z,95.89
2022-10-08T00:49:28.815Z,96.41
2022-10-08T00:52:36.342Z,96.88
2022-10-08T00:55:44.288Z,97.08
2022-10-08T00:58:51.811Z,96.71
2022-10-08T01:01:59.313Z,96.20
2022-10-08T01:05:07.180Z,95.89
2022-10-08T01:08:15.010Z,95.68
2022-10-08T01:11:22.589Z,95.78
2022-10-08T01:14:30.354Z,95.99
2022-10-08T01:17:38.084Z,96.03
2022-10-08T01:20:45.924Z,96.30
2022-10-08T01:23:53.665Z,96.30
2022-10-08T01:27:01.196Z,96.41
2022-10-08T01:30:08.990Z,96.34
2022-10-08T01:33:16.635Z,96.71
2022-10-08T01:36:24.306Z,97.23
2022-10-08T01:39:31.711Z,97.74
2022-10-08T01:42:39.737Z,98.32
2022-10-08T01:45:47.416Z,98.21
2022-10-08T01:48:55.071Z,98.47
2022-10-08T01:52:03.052Z,98.79
2022-10-08T01:55:10.323Z,99.25
2022-10-08T01:58:17.894Z,99.15
2022-10-08T02:01:25.937Z,99.31
2022-10-08T02:04:33.306Z,99.00
2022-10-08T02:07:41.314Z,98.90
2022-10-08T02:10:49.100Z,98.90
2022-10-08T02:13:56.300Z,98.49
2022-10-08T02:17:04.220Z,98.69
2022-10-08T02:20:11.704Z,98.59
2022-10-08T02:23:18.842Z,99.05
2022-10-08T02:26:26.316Z,98.96
2022-10-08T02:29:34.094Z,98.96
2022-10-08T02:32:41.252Z,98.33
2022-10-08T02:35:49.024Z,98.03
2022-10-08T02:38:56.179Z,97.77
2022-10-08T02:42:04.225Z,97.56
2022-10-08T02:45:11.985Z,97.77
2022-10-08T02:48:19.191Z,98.18
2022-10-08T02:51:27.097Z,98.49
2022-10-08T02:54:35.230Z,98.90
2022-10-08T02:57:42.327Z,98.59
2022-10-08T03:00:50.033Z,98.12
2022-10-08T03:03:58.142Z,98.02
2022-10-08T03:07:05.414Z,97.91
2022-10-08T03:10:13.207Z,98.22
2022-10-08T03:13:20.734Z,98.53
2022-10-08T03:16:28.509Z,98.74
2022-10-08T03:19:36.639Z,98.84
2022-10-08T03:22:44.259Z,99.15
2022-10-08T03:25:52.125Z,98.94
2022-10-08T03:28:59.932Z,99.15
2022-10-08T03:32:07.523Z,99.31
2022-10-08T03:35:15.349Z,99.10
2022-10-08T03:38:23.474Z,98.90
2022-10-08T03:41:30.682Z,98.90
2022-10-08T03:44:38.653Z,98.69
2022-10-08T03:47:46.129Z,98.59
2022-10-08T03:50:53.785Z,98.28
2022-10-08T03:54:01.372Z,98.49
2022-10-08T03:57:08.872Z,98.28
2022-10-08T04:00:16.103Z,98.18
2022-10-08T04:03:24.082Z,98.18
2022-10-08T04:06:31.850Z,98.49
2022-10-08T04:09:39.468Z,98.28
2022-10-08T04:12:47.207Z,98.49
2022-10-08T04:15:55.234Z,98.33
2022-10-08T04:19:02.733Z,98.28
2022-10-08T04:22:10.251Z,98.53
2022-10-08T04:25:18.095Z,98.49
2022-10-08T04:28:25.844Z,98.79
2022-10-08T04:31:33.406Z,98.69
2022-10-08T04:34:40.956Z,98.33
2022-10-08T04:37:48.200Z,98.24
2022-10-08T04:40:56.318Z,97.99
2022-10-08T04:44:04.039Z,97.78
2022-10-08T04:47:11.459Z,97.94
2022-10-08T04:50:19.550Z,97.53
2022-10-08T04:53:27.300Z,97.07
2022-10-08T04:56:35.334Z,96.56
2022-10-08T05:00:05.759Z,96.45
2022-10-08T05:02:47.789Z,96.15
2022-10-08T05:05:55.774Z,96.00
2022-10-08T05:09:03.805Z,96.00
2022-10-08T05:12:10.945Z,95.95
2022-10-08T05:15:18.685Z,95.44
2022-10-08T05:18:26.118Z,95.40
2022-10-08T05:21:33.586Z,95.09
2022-10-08T05:24:41.498Z,94.64
2022-10-08T05:27:48.969Z,94.08
2022-10-08T05:30:56.383Z,93.12
2022-10-08T05:34:04.120Z,92.66
2022-10-08T05:37:11.590Z,91.85
2022-10-08T05:40:19.202Z,91.29
2022-10-08T05:43:27.352Z,90.78
2022-10-08T05:46:34.986Z,90.68
2022-10-08T05:49:42.790Z,90.33
2022-10-08T05:52:50.558Z,90.02
2022-10-08T05:55:58.064Z,89.82
2022-10-08T05:59:06.095Z,89.67
2022-10-08T06:02:13.560Z,89.58
2022-10-08T06:05:21.118Z,89.26
2022-10-08T06:08:28.729Z,88.96
2022-10-08T06:11:36.351Z,88.71
2022-10-08T06:14:43.661Z,88.51
2022-10-08T06:17:51.091Z,88.26
2022-10-08T06:20:58.951Z,88.06
2022-10-08T06:24:06.508Z,87.96
2022-10-08T06:27:13.935Z,87.76
2022-10-08T06:30:21.720Z,87.65
2022-10-08T06:33:28.954Z,87.14
2022-10-08T06:36:36.937Z,87.35
2022-10-08T06:39:48.409Z,87.14
2022-10-08T06:42:45.523Z,87.24
2022-10-08T06:45:54.106Z,88.37
2022-10-08T06:49:01.867Z,88.78
2022-10-08T06:52:09.067Z,90.04
2022-10-08T06:55:17.022Z,90.96
2022-10-08T06:58:24.398Z,91.92
2022-10-08T07:01:33.888Z,92.33
2022-10-08T07:04:41.829Z,92.54
2022-10-08T07:07:49.151Z,92.33
2022-10-08T07:10:56.792Z,92.33
2022-10-08T07:14:04.601Z,92.13
2022-10-08T07:17:12.075Z,93.15
2022-10-08T07:20:19.274Z,93.96
2022-10-08T07:23:26.473Z,94.62
2022-10-08T07:26:34.483Z,94.93
2022-10-08T07:29:42.225Z,95.23
2022-10-08T07:32:49.861Z,95.54
2022-10-08T07:35:57.958Z,95.23
2022-10-08T07:39:05.340Z,95.44
2022-10-08T07:42:13.028Z,95.19
2022-10-08T07:45:20.756Z,94.78
2022-10-08T07:48:32.982Z,94.17
2022-10-08T07:51:31.454Z,94.07
2022-10-08T07:54:39.273Z,94.02
2022-10-08T07:57:46.309Z,93.71
2022-10-08T08:00:54.137Z,93.51
2022-10-08T08:04:01.878Z,94.02
2022-10-08T08:07:08.995Z,93.98
2022-10-08T08:10:16.855Z,94.18
2022-10-08T08:13:24.357Z,94.04
2022-10-08T08:16:32.002Z,93.84
2022-10-08T08:19:39.668Z,93.52
2022-10-08T08:22:47.555Z,93.32
2022-10-08T08:25:55.745Z,93.43
2022-10-08T08:29:03.540Z,93.79
2022-10-08T08:32:10.600Z,94.09
2022-10-08T08:35:18.112Z,94.30
2022-10-08T08:38:25.772Z,95.12
2022-10-08T08:41:34.165Z,95.48
2022-10-08T08:44:42.100Z,95.07
2022-10-08T08:47:49.614Z,95.33
2022-10-08T08:50:57.587Z,95.03
2022-10-08T08:54:06.245Z,94.82
2022-10-08T08:57:13.758Z,93.60
2022-10-08T09:00:21.738Z,94.01
2022-10-08T09:03:29.096Z,94.31
2022-10-08T09:06:36.687Z,93.90
2022-10-08T09:09:44.147Z,92.99
2022-10-08T09:12:51.200Z,93.09
2022-10-08T09:15:59.122Z,92.79
2022-10-08T09:19:07.102Z,92.23
2022-10-08T09:22:14.200Z,92.44
2022-10-08T09:25:22.094Z,91.52
2022-10-08T09:28:29.749Z,92.03
2022-10-08T09:31:37.192Z,91.11
2022-10-08T09:34:45.166Z,91.22
2022-10-08T09:37:52.206Z,90.60
2022-10-08T09:40:59.974Z,91.22
2022-10-08T09:44:07.665Z,90.91
2022-10-08T09:47:14.699Z,91.68
2022-10-08T09:50:22.538Z,89.85
2022-10-08T09:53:30.063Z,88.79
2022-10-08T09:56:37.650Z,87.53
2022-10-08T09:59:44.723Z,85.90
2022-10-08T10:02:52.400Z,86.07
2022-10-08T10:06:00.052Z,84.64
2022-10-08T10:09:07.414Z,84.84
2022-10-08T10:12:15.026Z,83.85
2022-10-08T10:15:22.547Z,81.95
2022-10-08T10:18:30.048Z,80.77
2022-10-08T10:21:37.858Z,81.99
2022-10-08T10:24:45.247Z,82.50
2022-10-08T10:27:52.570Z,82.09
2022-10-08T10:31:00.363Z,80.97
2022-10-08T10:34:07.404Z,81.74
2022-10-08T10:37:14.992Z,80.53
2022-10-08T10:40:22.358Z,81.78
2022-10-08T10:43:29.444Z,82.70
2022-10-08T10:46:37.375Z,82.35
2022-10-08T10:49:44.733Z,80.79
2022-10-08T10:52:52.857Z,78.83
2022-10-08T10:56:00.878Z,79.20
2022-10-08T10:59:08.469Z,77.78
2022-10-08T11:02:16.316Z,77.01
2022-10-08T11:05:24.120Z,77.45
2022-10-08T11:08:31.110Z,77.75
2022-10-08T11:11:38.902Z,78.40
2022-10-08T11:14:46.730Z,79.96
2022-10-08T11:17:54.080Z,78.09
2022-10-08T11:21:01.556Z,77.72
2022-10-08T11:24:08.885Z,76.46
2022-10-08T11:27:17.016Z,74.44
2022-10-08T11:30:24.640Z,75.92
2022-10-08T11:33:32.059Z,74.44
2022-10-08T11:36:39.329Z,75.04
2022-10-08T11:39:47.240Z,75.35
2022-10-08T11:42:55.129Z,75.11
2022-10-08T11:46:02.301Z,73.90
2022-10-08T11:49:09.720Z,73.52
2022-10-08T11:52:17.283Z,71.97
2022-10-08T11:55:24.554Z,71.97
2022-10-08T11:58:32.107Z,72.28
2022-10-08T12:01:39.616Z,71.80
2022-10-08T12:04:47.118Z,71.00
2022-10-08T12:07:54.567Z,71.50
2022-10-08T12:11:02.088Z,69.98
2022-10-08T12:14:09.450Z,71.09
2022-10-08T12:17:17.052Z,69.95
2022-10-08T12:20:24.524Z,67.86
2022-10-08T12:23:32.064Z,68.87
2022-10-08T12:26:39.787Z,67.26
2022-10-08T12:29:47.175Z,67.80
2022-10-08T12:32:54.174Z,68.07
2022-10-08T12:36:01.816Z,67.90
2022-10-08T12:39:09.225Z,67.43
2022-10-08T12:42:16.933Z,66.11
2022-10-08T12:45:24.590Z,66.31
2022-10-08T12:48:31.671Z,64.49
2022-10-08T12:51:39.613Z,68.43
2022-10-08T12:54:47.307Z,72.72
2022-10-08T12:57:54.550Z,81.39
2022-10-08T13:01:02.220Z,86.53
2022-10-08T13:04:09.754Z,91.03
2022-10-08T13:07:17.476Z,92.05
2022-10-08T13:10:26.180Z,93.89
2022-10-08T13:13:33.586Z,94.30
2022-10-08T13:16:41.080Z,93.28
2022-10-08T13:19:49.055Z,94.24
2022-10-08T13:22:56.577Z,94.09
2022-10-08T13:26:04.161Z,92.41
2022-10-08T13:29:11.649Z,91.79
2022-10-08T13:32:19.369Z,90.36
2022-10-08T13:35:27.183Z,88.32
2022-10-08T13:38:34.713Z,90.51
2022-10-08T13:41:42.693Z,91.83
2022-10-08T13:44:50.225Z,91.83
2022-10-08T13:47:57.716Z,93.16
2022-10-08T13:51:05.605Z,93.84
2022-10-08T13:54:12.917Z,93.73
2022-10-08T13:57:20.841Z,94.40
2022-10-08T14:00:28.745Z,93.28
2022-10-08T14:03:35.994Z,92.01
2022-10-08T14:06:43.681Z,91.16
2022-10-08T14:09:51.670Z,91.05
2022-10-08T14:12:58.762Z,89.36
2022-10-08T14:16:06.725Z,88.08
2022-10-08T14:19:14.325Z,88.93
2022-10-08T14:22:21.764Z,90.26
2022-10-08T14:25:29.552Z,91.22
2022-10-08T14:28:37.073Z,90.71
2022-10-08T14:31:44.579Z,92.14
2022-10-08T14:34:52.398Z,90.67
2022-10-08T14:37:59.577Z,90.94
2022-10-08T14:41:07.039Z,90.28
2022-10-08T14:44:14.488Z,89.87
2022-10-08T14:47:22.374Z,87.94
2022-10-08T14:50:29.842Z,87.69
2022-10-08T14:53:36.943Z,87.18
2022-10-08T14:56:44.822Z,88.02
2022-10-08T14:59:52.252Z,85.17
2022-10-08T15:02:59.871Z,84.39
2022-10-08T15:06:07.637Z,84.70
2022-10-08T15:09:14.956Z,84.39
2022-10-08T15:12:22.049Z,84.19
2022-10-08T15:15:30.137Z,83.98
2022-10-08T15:18:37.199Z,84.19
2022-10-08T15:21:45.050Z,84.29
2022-10-08T15:24:52.969Z,83.82
2022-10-08T15:28:00.056Z,84.03
2022-10-08T15:31:07.568Z,83.82
2022-10-08T15:34:15.562Z,84.06
2022-10-08T15:37:22.597Z,84.27
2022-10-08T15:40:29.957Z,84.37
2022-10-08T15:43:39.492Z,83.11
2022-10-08T15:46:46.932Z,81.58
2022-10-08T15:49:54.755Z,82.50
2022-10-08T15:53:02.316Z,82.54
2022-10-08T15:56:09.767Z,82.94
2022-10-08T15:59:17.598Z,83.65
2022-10-08T16:02:24.772Z,83.39
2022-10-08T16:05:32.519Z,83.59
2022-10-08T16:08:39.842Z,82.57
2022-10-08T16:11:47.534Z,83.09
2022-10-08T16:14:55.326Z,83.23
2022-10-08T16:18:02.751Z,84.14
2022-10-08T16:21:10.724Z,84.39
2022-10-08T16:24:18.124Z,84.69
2022-10-08T16:27:25.676Z,84.80
2022-10-08T16:30:33.525Z,85.24
2022-10-08T16:33:40.597Z,85.24
2022-10-08T16:36:48.511Z,85.59
2022-10-08T16:39:56.458Z,85.08
2022-10-08T16:43:03.701Z,84.98
2022-10-08T16:46:11.969Z,85.59
2022-10-08T16:49:24.488Z,86.44
2022-10-08T16:52:21.724Z,86.79
2022-10-08T16:55:30.230Z,87.00
2022-10-08T16:58:38.633Z,87.55
2022-10-08T17:01:46.603Z,87.76
2022-10-08T17:04:54.661Z,87.76
2022-10-08T17:08:02.254Z,88.06
2022-10-08T17:11:10.100Z,88.26
2022-10-08T17:14:18.257Z,88.71
2022-10-08T17:17:25.726Z,89.43
2022-10-08T17:20:33.698Z,89.68
2022-10-08T17:23:41.449Z,89.98
2022-10-08T17:26:49.406Z,90.50
2022-10-08T17:29:57.259Z,90.70
2022-10-08T17:33:04.823Z,90.70
2022-10-08T17:36:13.278Z,90.56
2022-10-08T17:39:21.002Z,90.77
2022-10-08T17:42:28.935Z,91.22
2022-10-08T17:45:37.495Z,91.11
2022-10-08T17:48:45.220Z,91.63
2022-10-08T17:51:52.475Z,91.87
2022-10-08T17:55:00.656Z,91.97
2022-10-08T17:58:07.896Z,91.67
2022-10-08T18:01:15.645Z,91.56
2022-10-08T18:04:23.837Z,91.71
2022-10-08T18:07:31.838Z,91.91
2022-10-08T18:10:40.209Z,92.12
2022-10-08T18:13:48.725Z,92.36
2022-10-08T18:16:56.130Z,92.57
2022-10-08T18:20:04.231Z,92.72
2022-10-08T18:23:12.002Z,93.13
2022-10-08T18:26:19.411Z,93.54
2022-10-08T18:29:27.101Z,93.64
2022-10-08T18:32:34.293Z,93.89
2022-10-08T18:35:42.386Z,94.30
2022-10-08T18:38:50.265Z,94.51
2022-10-08T18:41:57.488Z,94.51
2022-10-08T18:45:05.323Z,94.71
2022-10-08T18:48:13.042Z,94.76
2022-10-08T18:51:20.375Z,94.76
2022-10-08T18:54:28.530Z,94.76
2022-10-08T18:57:36.053Z,94.76
2022-10-08T19:00:43.579Z,94.76
2022-10-08T19:03:51.478Z,94.76
2022-10-08T19:06:59.066Z,94.65
2022-10-08T19:10:06.761Z,94.76
2022-10-08T19:13:14.480Z,94.85
2022-10-08T19:16:22.313Z,94.76
2022-10-08T19:19:29.863Z,94.65
2022-10-08T19:22:37.404Z,94.85
2022-10-08T19:25:45.522Z,94.90
2022-10-08T19:28:53.290Z,94.90
2022-10-08T19:32:00.743Z,94.90
2022-10-08T19:35:08.534Z,95.10
2022-10-08T19:38:16.136Z,95.10
2022-10-08T19:41:24.307Z,95.21
2022-10-08T19:44:32.064Z,95.21
2022-10-08T19:47:39.722Z,95.21
2022-10-08T19:50:47.325Z,95.10
2022-10-08T19:53:55.398Z,95.05
2022-10-08T19:57:02.653Z,95.05
2022-10-08T20:00:10.836Z,95.15
2022-10-08T20:03:18.731Z,95.25
2022-10-08T20:06:26.169Z,95.30
2022-10-08T20:09:34.126Z,95.30
2022-10-08T20:12:42.052Z,95.61
2022-10-08T20:15:51.561Z,95.81
2022-10-08T20:18:59.639Z,96.12
2022-10-08T20:22:11.546Z,96.43
2022-10-08T20:25:08.412Z,96.43
2022-10-08T20:28:16.381Z,96.37
2022-10-08T20:31:25.322Z,96.37
2022-10-08T20:34:32.997Z,96.27
2022-10-08T20:37:41.144Z,96.37
2022-10-08T20:40:48.629Z,96.27
2022-10-08T20:43:56.221Z,96.27
2022-10-08T20:47:04.281Z,96.31
2022-10-08T20:50:11.591Z,96.42
2022-10-08T20:53:19.491Z,96.31
2022-10-08T20:56:27.208Z,96.05
2022-10-08T20:59:35.070Z,96.25
2022-10-08T21:02:42.633Z,96.25
2022-10-08T21:05:51.053Z,96.25
2022-10-08T21:08:59.492Z,96.30
2022-10-08T21:12:08.027Z,96.61
2022-10-08T21:15:15.877Z,96.71
2022-10-08T21:18:23.903Z,97.02
2022-10-08T21:21:31.245Z,97.33
2022-10-08T21:24:38.899Z,97.27
2022-10-08T21:27:46.956Z,97.27
2022-10-08T21:30:54.136Z,97.27
2022-10-08T21:34:02.077Z,97.27
2022-10-08T21:37:13.715Z,97.38
2022-10-08T21:40:10.377Z,97.48
2022-10-08T21:43:18.386Z,97.27
2022-10-08T21:46:26.141Z,97.11
2022-10-08T21:49:33.738Z,97.11
2022-10-08T21:52:41.811Z,97.42
2022-10-08T21:55:49.378Z,97.52
2022-10-08T21:58:56.971Z,97.42
2022-10-08T22:02:04.680Z,97.42
2022-10-08T22:05:12.278Z,97.26
2022-10-08T22:08:19.791Z,97.47
2022-10-08T22:11:27.686Z,97.36
2022-10-08T22:14:35.286Z,97.47
2022-10-08T22:17:42.913Z,97.47
2022-10-08T22:20:50.875Z,97.47
2022-10-08T22:23:59.107Z,97.56
2022-10-08T22:27:06.880Z,97.56
2022-10-08T22:30:14.596Z,97.61
2022-10-08T22:33:22.326Z,97.51
2022-10-08T22:36:29.977Z,97.61
2022-10-08T22:39:37.749Z,97.82
2022-10-08T22:42:45.642Z,98.02
2022-10-08T22:45:53.268Z,98.02
2022-10-08T22:49:01.743Z,98.23
2022-10-08T22:52:09.639Z,98.13
2022-10-08T22:55:16.960Z,98.13
2022-10-08T22:58:25.084Z,98.02
2022-10-08T23:01:32.846Z,98.02
2022-10-08T23:04:40.203Z,97.92
2022-10-08T23:07:48.230Z,98.02
2022-10-08T23:10:55.476Z,97.82
2022-10-08T23:14:03.743Z,97.30
2022-10-08T23:17:12.131Z,97.25
2022-10-08T23:20:19.486Z,97.14
2022-10-08T23:23:27.624Z,97.34
2022-10-08T23:26:35.333Z,97.34
2022-10-08T23:29:43.025Z,97.60
2022-10-08T23:32:51.439Z,97.60
2022-10-08T23:35:59.118Z,97.81
2022-10-08T23:39:06.864Z,97.91
2022-10-08T23:42:14.373Z,97.91
2022-10-08T23:45:22.098Z,97.81
2022-10-08T23:48:29.508Z,97.81
2022-10-08T23:51:37.349Z,97.81
2022-10-08T23:54:44.679Z,97.91
2022-10-08T23:57:52.380Z,97.81
